sensor_id;sensor_type;location;lat;lon;timestamp;temperature;humidity
3466;DHT22;1747;48.884;9.160;2022-07-29T00:01:49;22.00;99.90
3466;DHT22;1747;48.884;9.160;2022-07-29T00:04:17;21.90;99.90
3466;DHT22;1747;48.884;9.160;2022-07-29T00:06:44;21.90;99.90
3466;DHT22;1747;48.884;9.160;2022-07-29T00:09:13;21.90;99.90
3466;DHT22;1747;48.884;9.160;2022-07-29T00:11:40;21.90;99.90
3466;DHT22;1747;48.884;9.160;2022-07-29T00:14:06;21.80;99.90
3466;DHT22;1747;48.884;9.160;2022-07-29T00:16:33;21.70;99.90
3466;DHT22;1747;48.884;9.160;2022-07-29T00:19:00;21.70;99.90
3466;DHT22;1747;48.884;9.160;2022-07-29T00:21:27;21.70;99.90
3466;DHT22;1747;48.884;9.160;2022-07-29T00:23:54;21.60;99.90
3466;DHT22;1747;48.884;9.160;2022-07-29T00:26:22;21.50;99.90
3466;DHT22;1747;48.884;9.160;2022-07-29T00:28:49;21.40;99.90
3466;DHT22;1747;48.884;9.160;2022-07-29T00:31:16;21.30;99.90
3466;DHT22;1747;48.884;9.160;2022-07-29T00:33:42;21.30;99.90
3466;DHT22;1747;48.884;9.160;2022-07-29T00:36:09;21.20;99.90
3466;DHT22;1747;48.884;9.160;2022-07-29T00:38:36;21.30;99.90
3466;DHT22;1747;48.884;9.160;2022-07-29T00:41:03;21.20;99.90
3466;DHT22;1747;48.884;9.160;2022-07-29T00:43:31;21.20;99.90
3466;DHT22;1747;48.884;9.160;2022-07-29T00:45:58;21.20;99.90
3466;DHT22;1747;48.884;9.160;2022-07-29T00:48:25;21.30;99.90
3466;DHT22;1747;48.884;9.160;2022-07-29T00:50:52;21.20;99.90
3466;DHT22;1747;48.884;9.160;2022-07-29T00:53:20;21.20;99.90
3466;DHT22;1747;48.884;9.160;2022-07-29T00:55:47;21.20;99.90
3466;DHT22;1747;48.884;9.160;2022-07-29T00:58:14;21.10;99.90
3466;DHT22;1747;48.884;9.160;2022-07-29T01:00:43;21.10;99.90
3466;DHT22;1747;48.884;9.160;2022-07-29T01:03:10;21.00;99.90
3466;DHT22;1747;48.884;9.160;2022-07-29T01:05:37;21.00;99.90
3466;DHT22;1747;48.884;9.160;2022-07-29T01:08:05;20.90;99.90
3466;DHT22;1747;48.884;9.160;2022-07-29T01:10:33;20.90;99.90
3466;DHT22;1747;48.884;9.160;2022-07-29T01:13:03;20.80;99.90
3466;DHT22;1747;48.884;9.160;2022-07-29T01:15:30;20.60;99.90
3466;DHT22;1747;48.884;9.160;2022-07-29T01:18:03;20.50;99.90
3466;DHT22;1747;48.884;9.160;2022-07-29T01:20:46;20.40;99.90
3466;DHT22;1747;48.884;9.160;2022-07-29T01:23:39;20.30;99.90
3466;DHT22;1747;48.884;9.160;2022-07-29T01:26:28;20.20;99.90
3466;DHT22;1747;48.884;9.160;2022-07-29T01:29:07;20.20;99.90
3466;DHT22;1747;48.884;9.160;2022-07-29T01:31:43;20.10;99.90
3466;DHT22;1747;48.884;9.160;2022-07-29T01:34:16;20.10;99.90
3466;DHT22;1747;48.884;9.160;2022-07-29T01:36:48;20.10;99.90
3466;DHT22;1747;48.884;9.160;2022-07-29T01:39:19;20.10;99.90
3466;DHT22;1747;48.884;9.160;2022-07-29T01:41:51;20.10;99.90
3466;DHT22;1747;48.884;9.160;2022-07-29T01:44:27;20.10;99.90
3466;DHT22;1747;48.884;9.160;2022-07-29T01:47:00;20.10;99.90
3466;DHT22;1747;48.884;9.160;2022-07-29T01:49:31;20.10;99.90
3466;DHT22;1747;48.884;9.160;2022-07-29T01:52:01;20.10;99.90
3466;DHT22;1747;48.884;9.160;2022-07-29T01:54:34;20.00;99.90
3466;DHT22;1747;48.884;9.160;2022-07-29T01:57:03;19.90;99.90
3466;DHT22;1747;48.884;9.160;2022-07-29T01:59:34;19.80;99.90
3466;DHT22;1747;48.884;9.160;2022-07-29T02:02:01;19.60;99.90
3466;DHT22;1747;48.884;9.160;2022-07-29T02:04:29;19.50;99.90
3466;DHT22;1747;48.884;9.160;2022-07-29T02:07:03;19.60;99.90
3466;DHT22;1747;48.884;9.160;2022-07-29T02:09:34;19.60;99.90
3466;DHT22;1747;48.884;9.160;2022-07-29T02:12:04;19.70;99.90
3466;DHT22;1747;48.884;9.160;2022-07-29T02:14:36;19.70;99.90
3466;DHT22;1747;48.884;9.160;2022-07-29T02:17:03;19.80;99.90
3466;DHT22;1747;48.884;9.160;2022-07-29T02:19:32;19.80;99.90
3466;DHT22;1747;48.884;9.160;2022-07-29T02:22:00;19.80;99.90
3466;DHT22;1747;48.884;9.160;2022-07-29T02:24:28;19.90;99.90
3466;DHT22;1747;48.884;9.160;2022-07-29T02:26:56;19.90;99.90
3466;DHT22;1747;48.884;9.160;2022-07-29T02:29:26;20.00;99.90
3466;DHT22;1747;48.884;9.160;2022-07-29T02:31:57;20.00;99.90
3466;DHT22;1747;48.884;9.160;2022-07-29T02:34:25;20.00;99.90
3466;DHT22;1747;48.884;9.160;2022-07-29T02:36:54;20.00;99.90
3466;DHT22;1747;48.884;9.160;2022-07-29T02:39:23;19.90;99.90
3466;DHT22;1747;48.884;9.160;2022-07-29T02:41:55;19.90;99.90
3466;DHT22;1747;48.884;9.160;2022-07-29T02:44:24;19.90;99.90
3466;DHT22;1747;48.884;9.160;2022-07-29T02:46:54;19.80;99.90
3466;DHT22;1747;48.884;9.160;2022-07-29T02:49:34;19.80;99.90
3466;DHT22;1747;48.884;9.160;2022-07-29T02:52:03;19.80;99.90
3466;DHT22;1747;48.884;9.160;2022-07-29T02:54:37;19.80;99.90
3466;DHT22;1747;48.884;9.160;2022-07-29T02:57:10;19.80;99.90
3466;DHT22;1747;48.884;9.160;2022-07-29T02:59:42;19.80;99.90
3466;DHT22;1747;48.884;9.160;2022-07-29T03:02:10;19.60;99.90
3466;DHT22;1747;48.884;9.160;2022-07-29T03:04:40;19.50;99.90
3466;DHT22;1747;48.884;9.160;2022-07-29T03:07:09;19.40;99.90
3466;DHT22;1747;48.884;9.160;2022-07-29T03:09:37;19.40;99.90
3466;DHT22;1747;48.884;9.160;2022-07-29T03:12:05;19.40;99.90
3466;DHT22;1747;48.884;9.160;2022-07-29T03:14:33;19.30;99.90
3466;DHT22;1747;48.884;9.160;2022-07-29T03:17:02;19.30;99.90
3466;DHT22;1747;48.884;9.160;2022-07-29T03:19:29;19.30;99.90
3466;DHT22;1747;48.884;9.160;2022-07-29T03:21:57;19.20;99.90
3466;DHT22;1747;48.884;9.160;2022-07-29T03:24:29;19.20;99.90
3466;DHT22;1747;48.884;9.160;2022-07-29T03:27:15;19.20;99.90
3466;DHT22;1747;48.884;9.160;2022-07-29T03:29:42;19.20;99.90
3466;DHT22;1747;48.884;9.160;2022-07-29T03:32:09;19.20;99.90
3466;DHT22;1747;48.884;9.160;2022-07-29T03:34:36;19.30;99.90
3466;DHT22;1747;48.884;9.160;2022-07-29T03:37:05;19.40;99.90
3466;DHT22;1747;48.884;9.160;2022-07-29T03:39:36;19.20;99.90
3466;DHT22;1747;48.884;9.160;2022-07-29T03:42:06;19.30;99.90
3466;DHT22;1747;48.884;9.160;2022-07-29T03:44:35;19.20;99.90
3466;DHT22;1747;48.884;9.160;2022-07-29T03:47:04;19.30;99.90
3466;DHT22;1747;48.884;9.160;2022-07-29T03:49:32;19.30;99.90
3466;DHT22;1747;48.884;9.160;2022-07-29T03:52:01;19.30;99.90
3466;DHT22;1747;48.884;9.160;2022-07-29T03:54:29;19.30;99.90
3466;DHT22;1747;48.884;9.160;2022-07-29T03:56:58;19.30;99.90
3466;DHT22;1747;48.884;9.160;2022-07-29T03:59:26;19.40;99.90
3466;DHT22;1747;48.884;9.160;2022-07-29T04:01:55;19.30;99.90
3466;DHT22;1747;48.884;9.160;2022-07-29T04:04:23;19.20;99.90
3466;DHT22;1747;48.884;9.160;2022-07-29T04:06:50;19.20;99.90
3466;DHT22;1747;48.884;9.160;2022-07-29T04:09:17;19.20;99.90
3466;DHT22;1747;48.884;9.160;2022-07-29T04:11:45;19.30;99.90
3466;DHT22;1747;48.884;9.160;2022-07-29T04:14:12;19.30;99.90
3466;DHT22;1747;48.884;9.160;2022-07-29T04:16:39;19.20;99.90
3466;DHT22;1747;48.884;9.160;2022-07-29T04:19:06;19.00;99.90
3466;DHT22;1747;48.884;9.160;2022-07-29T04:21:37;19.00;99.90
3466;DHT22;1747;48.884;9.160;2022-07-29T04:24:04;19.00;99.90
3466;DHT22;1747;48.884;9.160;2022-07-29T04:26:31;19.00;99.90
3466;DHT22;1747;48.884;9.160;2022-07-29T04:29:00;19.10;99.90
3466;DHT22;1747;48.884;9.160;2022-07-29T04:31:27;19.20;99.90
3466;DHT22;1747;48.884;9.160;2022-07-29T04:33:53;19.20;99.90
3466;DHT22;1747;48.884;9.160;2022-07-29T04:36:20;19.10;99.90
3466;DHT22;1747;48.884;9.160;2022-07-29T04:38:47;19.10;99.90
3466;DHT22;1747;48.884;9.160;2022-07-29T04:41:14;19.20;99.90
3466;DHT22;1747;48.884;9.160;2022-07-29T04:43:41;19.20;99.90
3466;DHT22;1747;48.884;9.160;2022-07-29T04:46:09;19.30;99.90
3466;DHT22;1747;48.884;9.160;2022-07-29T04:48:36;19.30;99.90
3466;DHT22;1747;48.884;9.160;2022-07-29T04:51:03;19.30;99.90
3466;DHT22;1747;48.884;9.160;2022-07-29T04:53:30;19.20;99.90
3466;DHT22;1747;48.884;9.160;2022-07-29T04:55:56;19.30;99.90
3466;DHT22;1747;48.884;9.160;2022-07-29T04:58:23;19.30;99.90
3466;DHT22;1747;48.884;9.160;2022-07-29T05:00:50;19.40;99.90
3466;DHT22;1747;48.884;9.160;2022-07-29T05:03:18;19.50;99.90
3466;DHT22;1747;48.884;9.160;2022-07-29T05:05:45;19.60;99.90
3466;DHT22;1747;48.884;9.160;2022-07-29T05:08:12;19.70;99.90
3466;DHT22;1747;48.884;9.160;2022-07-29T05:10:39;19.80;99.90
3466;DHT22;1747;48.884;9.160;2022-07-29T05:13:06;19.90;99.90
3466;DHT22;1747;48.884;9.160;2022-07-29T05:15:33;20.00;99.90
3466;DHT22;1747;48.884;9.160;2022-07-29T05:18:01;20.10;99.90
3466;DHT22;1747;48.884;9.160;2022-07-29T05:20:30;20.20;99.90
3466;DHT22;1747;48.884;9.160;2022-07-29T05:22:59;20.20;99.90
3466;DHT22;1747;48.884;9.160;2022-07-29T05:25:27;20.20;99.90
3466;DHT22;1747;48.884;9.160;2022-07-29T05:27:55;20.30;99.90
3466;DHT22;1747;48.884;9.160;2022-07-29T05:30:22;20.40;99.90
3466;DHT22;1747;48.884;9.160;2022-07-29T05:32:49;20.50;99.90
3466;DHT22;1747;48.884;9.160;2022-07-29T05:35:16;20.60;99.90
3466;DHT22;1747;48.884;9.160;2022-07-29T05:37:44;20.70;99.90
3466;DHT22;1747;48.884;9.160;2022-07-29T05:40:11;20.80;99.90
3466;DHT22;1747;48.884;9.160;2022-07-29T05:42:38;20.90;99.90
3466;DHT22;1747;48.884;9.160;2022-07-29T05:45:05;20.90;99.90
3466;DHT22;1747;48.884;9.160;2022-07-29T05:47:32;21.00;99.90
3466;DHT22;1747;48.884;9.160;2022-07-29T05:49:59;21.00;99.90
3466;DHT22;1747;48.884;9.160;2022-07-29T05:52:26;21.00;99.90
3466;DHT22;1747;48.884;9.160;2022-07-29T05:54:54;21.10;99.90
3466;DHT22;1747;48.884;9.160;2022-07-29T05:57:23;21.10;99.90
3466;DHT22;1747;48.884;9.160;2022-07-29T05:59:50;21.20;99.90
3466;DHT22;1747;48.884;9.160;2022-07-29T06:02:17;21.30;99.90
3466;DHT22;1747;48.884;9.160;2022-07-29T06:04:45;21.40;99.90
3466;DHT22;1747;48.884;9.160;2022-07-29T06:07:11;21.50;99.90
3466;DHT22;1747;48.884;9.160;2022-07-29T06:09:38;21.60;99.90
3466;DHT22;1747;48.884;9.160;2022-07-29T06:12:07;21.80;99.90
3466;DHT22;1747;48.884;9.160;2022-07-29T06:14:34;21.80;99.90
3466;DHT22;1747;48.884;9.160;2022-07-29T06:17:03;22.00;99.90
3466;DHT22;1747;48.884;9.160;2022-07-29T06:19:30;22.00;99.90
3466;DHT22;1747;48.884;9.160;2022-07-29T06:21:57;22.00;99.90
3466;DHT22;1747;48.884;9.160;2022-07-29T06:24:24;22.10;99.90
3466;DHT22;1747;48.884;9.160;2022-07-29T06:26:51;22.20;99.90
3466;DHT22;1747;48.884;9.160;2022-07-29T06:29:19;22.30;99.90
3466;DHT22;1747;48.884;9.160;2022-07-29T06:31:46;22.40;99.90
3466;DHT22;1747;48.884;9.160;2022-07-29T06:34:13;22.50;99.90
3466;DHT22;1747;48.884;9.160;2022-07-29T06:36:40;22.60;99.90
3466;DHT22;1747;48.884;9.160;2022-07-29T06:39:08;22.70;99.90
3466;DHT22;1747;48.884;9.160;2022-07-29T06:41:35;22.80;99.90
3466;DHT22;1747;48.884;9.160;2022-07-29T06:44:02;22.70;99.90
3466;DHT22;1747;48.884;9.160;2022-07-29T06:46:31;22.80;99.90
3466;DHT22;1747;48.884;9.160;2022-07-29T06:48:58;22.80;99.90
3466;DHT22;1747;48.884;9.160;2022-07-29T06:51:26;22.80;99.90
3466;DHT22;1747;48.884;9.160;2022-07-29T06:53:53;22.80;99.90
3466;DHT22;1747;48.884;9.160;2022-07-29T06:56:20;22.90;99.90
3466;DHT22;1747;48.884;9.160;2022-07-29T06:58:47;22.90;99.90
3466;DHT22;1747;48.884;9.160;2022-07-29T07:01:14;22.90;99.90
3466;DHT22;1747;48.884;9.160;2022-07-29T07:03:42;22.90;99.90
3466;DHT22;1747;48.884;9.160;2022-07-29T07:06:09;23.10;99.90
3466;DHT22;1747;48.884;9.160;2022-07-29T07:08:36;23.30;99.90
3466;DHT22;1747;48.884;9.160;2022-07-29T07:11:03;23.40;99.90
3466;DHT22;1747;48.884;9.160;2022-07-29T07:13:31;23.50;99.90
3466;DHT22;1747;48.884;9.160;2022-07-29T07:16:00;23.70;99.90
3466;DHT22;1747;48.884;9.160;2022-07-29T07:18:27;23.70;99.90
3466;DHT22;1747;48.884;9.160;2022-07-29T07:20:56;23.70;99.90
3466;DHT22;1747;48.884;9.160;2022-07-29T07:23:23;23.80;99.90
3466;DHT22;1747;48.884;9.160;2022-07-29T07:25:50;23.90;99.90
3466;DHT22;1747;48.884;9.160;2022-07-29T07:28:17;24.00;99.90
3466;DHT22;1747;48.884;9.160;2022-07-29T07:30:44;24.10;99.90
3466;DHT22;1747;48.884;9.160;2022-07-29T07:33:11;24.10;99.90
3466;DHT22;1747;48.884;9.160;2022-07-29T07:35:38;24.20;99.90
3466;DHT22;1747;48.884;9.160;2022-07-29T07:38:06;24.30;99.90
3466;DHT22;1747;48.884;9.160;2022-07-29T07:40:33;24.50;99.90
3466;DHT22;1747;48.884;9.160;2022-07-29T07:43:00;24.60;99.90
3466;DHT22;1747;48.884;9.160;2022-07-29T07:45:27;24.80;99.90
3466;DHT22;1747;48.884;9.160;2022-07-29T07:47:54;25.00;99.90
3466;DHT22;1747;48.884;9.160;2022-07-29T07:50:21;25.10;99.90
3466;DHT22;1747;48.884;9.160;2022-07-29T07:52:49;25.10;99.90
3466;DHT22;1747;48.884;9.160;2022-07-29T07:55:19;25.00;99.90
3466;DHT22;1747;48.884;9.160;2022-07-29T07:57:46;25.20;99.90
3466;DHT22;1747;48.884;9.160;2022-07-29T08:00:13;25.40;99.90
3466;DHT22;1747;48.884;9.160;2022-07-29T08:02:41;25.40;99.90
3466;DHT22;1747;48.884;9.160;2022-07-29T08:05:09;25.30;99.90
3466;DHT22;1747;48.884;9.160;2022-07-29T08:07:37;25.40;99.90
3466;DHT22;1747;48.884;9.160;2022-07-29T08:10:05;25.40;99.90
3466;DHT22;1747;48.884;9.160;2022-07-29T08:12:33;25.40;99.90
3466;DHT22;1747;48.884;9.160;2022-07-29T08:15:00;25.40;99.90
3466;DHT22;1747;48.884;9.160;2022-07-29T08:17:27;25.50;99.90
3466;DHT22;1747;48.884;9.160;2022-07-29T08:19:54;25.50;99.90
3466;DHT22;1747;48.884;9.160;2022-07-29T08:22:20;25.50;99.90
3466;DHT22;1747;48.884;9.160;2022-07-29T08:24:47;25.50;99.90
3466;DHT22;1747;48.884;9.160;2022-07-29T08:27:19;25.60;99.90
3466;DHT22;1747;48.884;9.160;2022-07-29T08:29:48;25.80;99.90
3466;DHT22;1747;48.884;9.160;2022-07-29T08:32:15;26.00;99.90
3466;DHT22;1747;48.884;9.160;2022-07-29T08:34:42;26.20;99.90
3466;DHT22;1747;48.884;9.160;2022-07-29T08:37:11;26.20;99.90
3466;DHT22;1747;48.884;9.160;2022-07-29T08:39:38;26.30;99.90
3466;DHT22;1747;48.884;9.160;2022-07-29T08:42:05;26.30;99.90
3466;DHT22;1747;48.884;9.160;2022-07-29T08:44:33;26.50;99.90
3466;DHT22;1747;48.884;9.160;2022-07-29T08:47:02;26.60;99.90
3466;DHT22;1747;48.884;9.160;2022-07-29T08:49:30;26.70;99.90
3466;DHT22;1747;48.884;9.160;2022-07-29T08:51:57;26.80;99.90
3466;DHT22;1747;48.884;9.160;2022-07-29T08:54:25;26.90;98.80
3466;DHT22;1747;48.884;9.160;2022-07-29T08:56:52;27.00;97.60
3466;DHT22;1747;48.884;9.160;2022-07-29T08:59:22;26.90;97.70
3466;DHT22;1747;48.884;9.160;2022-07-29T09:01:50;26.90;97.70
3466;DHT22;1747;48.884;9.160;2022-07-29T09:04:21;27.00;97.90
3466;DHT22;1747;48.884;9.160;2022-07-29T09:06:52;27.20;96.70
3466;DHT22;1747;48.884;9.160;2022-07-29T09:09:21;27.40;95.80
3466;DHT22;1747;48.884;9.160;2022-07-29T09:11:48;27.40;95.80
3466;DHT22;1747;48.884;9.160;2022-07-29T09:14:15;27.50;96.10
3466;DHT22;1747;48.884;9.160;2022-07-29T09:16:50;27.60;96.10
3466;DHT22;1747;48.884;9.160;2022-07-29T09:19:26;27.50;95.90
3466;DHT22;1747;48.884;9.160;2022-07-29T09:21:54;27.50;96.20
3466;DHT22;1747;48.884;9.160;2022-07-29T09:24:26;27.60;96.30
3466;DHT22;1747;48.884;9.160;2022-07-29T09:26:53;27.60;95.90
3466;DHT22;1747;48.884;9.160;2022-07-29T09:29:22;27.70;95.50
3466;DHT22;1747;48.884;9.160;2022-07-29T09:31:52;27.70;95.80
3466;DHT22;1747;48.884;9.160;2022-07-29T09:34:22;27.70;96.20
3466;DHT22;1747;48.884;9.160;2022-07-29T09:36:52;27.90;95.20
3466;DHT22;1747;48.884;9.160;2022-07-29T09:39:30;28.00;95.00
3466;DHT22;1747;48.884;9.160;2022-07-29T09:41:58;28.20;94.00
3466;DHT22;1747;48.884;9.160;2022-07-29T09:44:25;28.30;94.10
3466;DHT22;1747;48.884;9.160;2022-07-29T09:46:57;28.40;94.20
3466;DHT22;1747;48.884;9.160;2022-07-29T09:49:25;28.50;93.90
3466;DHT22;1747;48.884;9.160;2022-07-29T09:52:04;28.50;93.20
3466;DHT22;1747;48.884;9.160;2022-07-29T09:54:31;28.50;92.90
3466;DHT22;1747;48.884;9.160;2022-07-29T09:57:03;28.40;92.60
3466;DHT22;1747;48.884;9.160;2022-07-29T09:59:31;28.30;92.30
3466;DHT22;1747;48.884;9.160;2022-07-29T10:01:58;28.40;92.30
3466;DHT22;1747;48.884;9.160;2022-07-29T10:04:37;28.50;92.50
3466;DHT22;1747;48.884;9.160;2022-07-29T10:07:05;28.60;92.30
3466;DHT22;1747;48.884;9.160;2022-07-29T10:09:33;28.60;92.10
3466;DHT22;1747;48.884;9.160;2022-07-29T10:12:05;28.70;91.90
3466;DHT22;1747;48.884;9.160;2022-07-29T10:14:32;28.70;91.90
3466;DHT22;1747;48.884;9.160;2022-07-29T10:17:00;28.60;91.60
3466;DHT22;1747;48.884;9.160;2022-07-29T10:19:28;28.50;91.50
3466;DHT22;1747;48.884;9.160;2022-07-29T10:21:57;28.40;91.60
3466;DHT22;1747;48.884;9.160;2022-07-29T10:24:27;28.40;91.50
3466;DHT22;1747;48.884;9.160;2022-07-29T10:26:55;28.50;91.30
3466;DHT22;1747;48.884;9.160;2022-07-29T10:29:22;28.30;91.20
3466;DHT22;1747;48.884;9.160;2022-07-29T10:32:01;28.40;91.00
3466;DHT22;1747;48.884;9.160;2022-07-29T10:37:36;28.30;91.00
3466;DHT22;1747;48.884;9.160;2022-07-29T10:40:11;28.10;91.20
3466;DHT22;1747;48.884;9.160;2022-07-29T10:43:05;28.10;91.50
3466;DHT22;1747;48.884;9.160;2022-07-29T10:45:36;28.00;91.30
3466;DHT22;1747;48.884;9.160;2022-07-29T10:48:04;27.90;91.40
3466;DHT22;1747;48.884;9.160;2022-07-29T10:50:53;27.80;91.20
3466;DHT22;1747;48.884;9.160;2022-07-29T10:53:20;27.80;91.50
3466;DHT22;1747;48.884;9.160;2022-07-29T10:55:49;27.80;91.10
3466;DHT22;1747;48.884;9.160;2022-07-29T10:58:18;27.70;91.20
3466;DHT22;1747;48.884;9.160;2022-07-29T11:00:46;27.70;91.10
3466;DHT22;1747;48.884;9.160;2022-07-29T11:03:46;27.70;91.00
3466;DHT22;1747;48.884;9.160;2022-07-29T11:06:14;27.60;90.90
3466;DHT22;1747;48.884;9.160;2022-07-29T11:08:41;27.70;91.00
3466;DHT22;1747;48.884;9.160;2022-07-29T11:11:36;27.80;90.80
3466;DHT22;1747;48.884;9.160;2022-07-29T11:14:07;27.70;90.70
3466;DHT22;1747;48.884;9.160;2022-07-29T11:16:59;27.80;91.40
3466;DHT22;1747;48.884;9.160;2022-07-29T11:19:28;27.80;91.40
3466;DHT22;1747;48.884;9.160;2022-07-29T11:21:55;27.80;91.30
3466;DHT22;1747;48.884;9.160;2022-07-29T11:24:25;27.80;91.20
3466;DHT22;1747;48.884;9.160;2022-07-29T11:27:15;27.70;91.10
3466;DHT22;1747;48.884;9.160;2022-07-29T11:29:50;27.70;90.80
3466;DHT22;1747;48.884;9.160;2022-07-29T11:32:19;27.60;90.80
3466;DHT22;1747;48.884;9.160;2022-07-29T11:34:47;27.60;92.00
3466;DHT22;1747;48.884;9.160;2022-07-29T11:37:19;27.80;92.80
3466;DHT22;1747;48.884;9.160;2022-07-29T11:42:55;28.30;92.20
3466;DHT22;1747;48.884;9.160;2022-07-29T11:45:26;28.30;92.00
3466;DHT22;1747;48.884;9.160;2022-07-29T11:48:18;28.30;91.90
3466;DHT22;1747;48.884;9.160;2022-07-29T11:50:45;28.30;91.40
3466;DHT22;1747;48.884;9.160;2022-07-29T11:53:13;28.00;93.30
3466;DHT22;1747;48.884;9.160;2022-07-29T11:55:40;27.80;93.50
3466;DHT22;1747;48.884;9.160;2022-07-29T11:58:09;27.70;93.60
3466;DHT22;1747;48.884;9.160;2022-07-29T12:00:38;28.10;93.10
3466;DHT22;1747;48.884;9.160;2022-07-29T12:03:06;28.20;92.70
3466;DHT22;1747;48.884;9.160;2022-07-29T12:05:46;28.40;94.00
3466;DHT22;1747;48.884;9.160;2022-07-29T12:08:14;27.90;95.10
3466;DHT22;1747;48.884;9.160;2022-07-29T12:10:45;27.60;94.70
3466;DHT22;1747;48.884;9.160;2022-07-29T12:13:15;27.70;95.40
3466;DHT22;1747;48.884;9.160;2022-07-29T12:15:42;27.60;94.70
3466;DHT22;1747;48.884;9.160;2022-07-29T12:18:17;27.20;94.80
3466;DHT22;1747;48.884;9.160;2022-07-29T12:20:46;27.00;95.00
3466;DHT22;1747;48.884;9.160;2022-07-29T12:23:14;26.70;95.00
3466;DHT22;1747;48.884;9.160;2022-07-29T12:25:43;26.90;95.40
3466;DHT22;1747;48.884;9.160;2022-07-29T12:28:11;27.20;95.00
3466;DHT22;1747;48.884;9.160;2022-07-29T12:30:42;27.10;94.50
3466;DHT22;1747;48.884;9.160;2022-07-29T12:33:19;27.20;94.80
3466;DHT22;1747;48.884;9.160;2022-07-29T12:35:49;26.90;94.70
3466;DHT22;1747;48.884;9.160;2022-07-29T12:38:17;27.10;95.00
3466;DHT22;1747;48.884;9.160;2022-07-29T12:40:45;27.10;94.90
3466;DHT22;1747;48.884;9.160;2022-07-29T12:43:14;27.20;95.10
3466;DHT22;1747;48.884;9.160;2022-07-29T12:45:45;27.30;95.50
3466;DHT22;1747;48.884;9.160;2022-07-29T12:48:12;27.20;95.90
3466;DHT22;1747;48.884;9.160;2022-07-29T12:50:53;27.10;96.10
3466;DHT22;1747;48.884;9.160;2022-07-29T12:53:20;26.80;96.90
3466;DHT22;1747;48.884;9.160;2022-07-29T12:55:48;26.90;97.40
3466;DHT22;1747;48.884;9.160;2022-07-29T12:58:31;26.90;97.30
3466;DHT22;1747;48.884;9.160;2022-07-29T13:01:07;26.80;97.20
3466;DHT22;1747;48.884;9.160;2022-07-29T13:03:43;26.80;97.10
3466;DHT22;1747;48.884;9.160;2022-07-29T13:06:31;26.80;96.60
3466;DHT22;1747;48.884;9.160;2022-07-29T13:09:00;26.80;96.10
3466;DHT22;1747;48.884;9.160;2022-07-29T13:11:31;26.90;96.00
3466;DHT22;1747;48.884;9.160;2022-07-29T13:13:58;26.80;95.10
3466;DHT22;1747;48.884;9.160;2022-07-29T13:16:27;26.80;94.80
3466;DHT22;1747;48.884;9.160;2022-07-29T13:19:08;26.60;94.80
3466;DHT22;1747;48.884;9.160;2022-07-29T13:21:36;26.70;94.80
3466;DHT22;1747;48.884;9.160;2022-07-29T13:24:03;26.60;94.80
3466;DHT22;1747;48.884;9.160;2022-07-29T13:26:31;26.70;94.70
3466;DHT22;1747;48.884;9.160;2022-07-29T13:28:58;26.50;94.50
3466;DHT22;1747;48.884;9.160;2022-07-29T13:31:26;26.20;94.90
3466;DHT22;1747;48.884;9.160;2022-07-29T13:33:53;26.10;95.10
3466;DHT22;1747;48.884;9.160;2022-07-29T13:36:20;25.90;95.60
3466;DHT22;1747;48.884;9.160;2022-07-29T13:38:47;25.90;95.70
3466;DHT22;1747;48.884;9.160;2022-07-29T13:41:14;25.80;95.90
3466;DHT22;1747;48.884;9.160;2022-07-29T13:43:41;25.90;96.10
3466;DHT22;1747;48.884;9.160;2022-07-29T13:46:08;26.00;95.90
3466;DHT22;1747;48.884;9.160;2022-07-29T13:48:36;26.30;96.30
3466;DHT22;1747;48.884;9.160;2022-07-29T13:51:03;26.80;96.50
3466;DHT22;1747;48.884;9.160;2022-07-29T13:53:30;27.10;96.40
3466;DHT22;1747;48.884;9.160;2022-07-29T13:55:56;28.00;95.50
3466;DHT22;1747;48.884;9.160;2022-07-29T13:58:23;28.30;94.90
3466;DHT22;1747;48.884;9.160;2022-07-29T14:00:50;28.10;94.80
3466;DHT22;1747;48.884;9.160;2022-07-29T14:03:17;28.40;94.30
3466;DHT22;1747;48.884;9.160;2022-07-29T14:05:45;28.60;94.80
3466;DHT22;1747;48.884;9.160;2022-07-29T14:08:12;28.60;95.20
3466;DHT22;1747;48.884;9.160;2022-07-29T14:10:39;28.80;94.30
3466;DHT22;1747;48.884;9.160;2022-07-29T14:13:06;28.90;93.90
3466;DHT22;1747;48.884;9.160;2022-07-29T14:15:33;29.10;93.20
3466;DHT22;1747;48.884;9.160;2022-07-29T14:18:01;29.10;93.40
3466;DHT22;1747;48.884;9.160;2022-07-29T14:20:28;29.00;93.30
3466;DHT22;1747;48.884;9.160;2022-07-29T14:22:56;29.00;93.30
3466;DHT22;1747;48.884;9.160;2022-07-29T14:25:23;28.90;93.80
3466;DHT22;1747;48.884;9.160;2022-07-29T14:27:50;28.80;93.80
3466;DHT22;1747;48.884;9.160;2022-07-29T14:30:18;28.80;93.60
3466;DHT22;1747;48.884;9.160;2022-07-29T14:32:45;28.90;93.00
3466;DHT22;1747;48.884;9.160;2022-07-29T14:35:12;28.70;93.40
3466;DHT22;1747;48.884;9.160;2022-07-29T14:37:39;28.70;93.60
3466;DHT22;1747;48.884;9.160;2022-07-29T14:40:09;28.70;94.10
3466;DHT22;1747;48.884;9.160;2022-07-29T14:42:38;28.70;94.40
3466;DHT22;1747;48.884;9.160;2022-07-29T14:45:07;28.70;93.90
3466;DHT22;1747;48.884;9.160;2022-07-29T14:47:34;28.80;93.80
3466;DHT22;1747;48.884;9.160;2022-07-29T14:50:01;28.80;93.90
3466;DHT22;1747;48.884;9.160;2022-07-29T14:52:28;28.80;93.50
3466;DHT22;1747;48.884;9.160;2022-07-29T14:54:55;28.90;92.90
3466;DHT22;1747;48.884;9.160;2022-07-29T14:57:23;28.90;92.70
3466;DHT22;1747;48.884;9.160;2022-07-29T14:59:51;29.20;92.30
3466;DHT22;1747;48.884;9.160;2022-07-29T15:02:18;29.40;90.70
3466;DHT22;1747;48.884;9.160;2022-07-29T15:04:45;29.60;89.40
3466;DHT22;1747;48.884;9.160;2022-07-29T15:07:13;29.70;88.60
3466;DHT22;1747;48.884;9.160;2022-07-29T15:09:40;29.70;88.10
3466;DHT22;1747;48.884;9.160;2022-07-29T15:12:07;29.70;87.90
3466;DHT22;1747;48.884;9.160;2022-07-29T15:14:37;29.60;88.30
3466;DHT22;1747;48.884;9.160;2022-07-29T15:17:04;29.70;86.40
3466;DHT22;1747;48.884;9.160;2022-07-29T15:19:31;29.70;83.10
3466;DHT22;1747;48.884;9.160;2022-07-29T15:21:58;29.70;81.10
3466;DHT22;1747;48.884;9.160;2022-07-29T15:24:45;29.70;76.40
3466;DHT22;1747;48.884;9.160;2022-07-29T15:27:12;29.60;74.00
3466;DHT22;1747;48.884;9.160;2022-07-29T15:29:42;29.50;74.60
3466;DHT22;1747;48.884;9.160;2022-07-29T15:32:09;29.60;73.10
3466;DHT22;1747;48.884;9.160;2022-07-29T15:34:37;29.60;72.50
3466;DHT22;1747;48.884;9.160;2022-07-29T15:37:04;29.60;72.60
3466;DHT22;1747;48.884;9.160;2022-07-29T15:39:32;29.50;71.40
3466;DHT22;1747;48.884;9.160;2022-07-29T15:41:58;29.50;71.20
3466;DHT22;1747;48.884;9.160;2022-07-29T15:44:25;29.30;70.90
3466;DHT22;1747;48.884;9.160;2022-07-29T15:46:54;29.20;71.50
3466;DHT22;1747;48.884;9.160;2022-07-29T15:49:31;29.20;70.00
3466;DHT22;1747;48.884;9.160;2022-07-29T15:51:58;29.30;69.70
3466;DHT22;1747;48.884;9.160;2022-07-29T15:54:25;29.10;69.60
3466;DHT22;1747;48.884;9.160;2022-07-29T15:56:55;29.00;69.80
3466;DHT22;1747;48.884;9.160;2022-07-29T15:59:22;29.10;68.80
3466;DHT22;1747;48.884;9.160;2022-07-29T16:01:49;29.00;69.40
3466;DHT22;1747;48.884;9.160;2022-07-29T16:04:17;29.10;69.40
3466;DHT22;1747;48.884;9.160;2022-07-29T16:06:45;29.10;69.70
3466;DHT22;1747;48.884;9.160;2022-07-29T16:09:13;29.10;69.80
3466;DHT22;1747;48.884;9.160;2022-07-29T16:11:41;29.20;69.40
3466;DHT22;1747;48.884;9.160;2022-07-29T16:14:08;29.30;69.00
3466;DHT22;1747;48.884;9.160;2022-07-29T16:16:36;29.30;69.10
3466;DHT22;1747;48.884;9.160;2022-07-29T16:19:03;29.20;69.20
3466;DHT22;1747;48.884;9.160;2022-07-29T16:21:32;29.20;68.60